Haleyville, Alabama
Current Conditions -  °F | °C
As of 4:56 PM on Thursday 27 Nov 2014 (Local Time) from K1M4 Reporting Station
Overcast Overcast  
Wind Chill: 32°   Ceiling: 3700
Heat Index: 37°   Visibility: 10mi
Dew Point: 28°   Wind: 6mph
Humidity: 70%   Direction: 330°NNW
Pressure: 30.44"   Gusts: NA
Location:  34.23°N, 87.62°W
Report Text: K1M4 272256Z AUTO 33005KT 10SM SCT030 OVC037 03/M02 A3044 RMK AO2 T00271022 SLP317
Loading
Personal Weather Stations






























Interactive Weather Map New forecast layout! Learn more

10-Day Weather Forecast

Advertisements
Track Severe Weather on mobile